createdAt,value
2018-06-23T00:00:38.672Z,1014.23
2018-06-23T00:01:19.217Z,1014.27
2018-06-23T00:01:59.796Z,1014.26
2018-06-23T00:02:40.333Z,1014.22
2018-06-23T00:03:20.910Z,1014.27
2018-06-23T00:04:01.476Z,1014.24
2018-06-23T00:04:42.044Z,1014.16
2018-06-23T00:05:22.613Z,1014.2
2018-06-23T00:06:03.196Z,1014.17
2018-06-23T00:06:43.730Z,1014.16
2018-06-23T00:07:24.278Z,1014.17
2018-06-23T00:08:04.838Z,1014.16
2018-06-23T00:08:45.394Z,1014.14
2018-06-23T00:09:25.948Z,1014.17
2018-06-23T00:10:06.487Z,1014.12
2018-06-23T00:10:47.044Z,1014.13
2018-06-23T00:11:27.621Z,1014.11
2018-06-23T00:12:08.169Z,1014.1
2018-06-23T00:12:48.720Z,1014.07
2018-06-23T00:13:29.275Z,1014.13
2018-06-23T00:14:09.856Z,1014.12
2018-06-23T00:14:50.408Z,1014.12
2018-06-23T00:15:30.975Z,1014.11
2018-06-23T00:16:11.542Z,1014.14
2018-06-23T00:16:52.115Z,1014.1
2018-06-23T00:17:32.685Z,1014.11
2018-06-23T00:18:13.233Z,1014.07
2018-06-23T00:18:53.773Z,1014.08
2018-06-23T00:19:34.317Z,1014.14
2018-06-23T00:20:14.869Z,1014.12
2018-06-23T00:20:55.414Z,1014.07
2018-06-23T00:21:35.973Z,1014.17
2018-06-23T00:22:16.521Z,1014.1
2018-06-23T00:22:57.071Z,1014.1
2018-06-23T00:23:37.630Z,1014.09
2018-06-23T00:24:18.175Z,1014.06
2018-06-23T00:24:58.734Z,1014.13
2018-06-23T00:25:39.294Z,1014.12
2018-06-23T00:26:19.866Z,1014.16
2018-06-23T00:27:00.433Z,1014.08
2018-06-23T00:27:40.993Z,1014.12
2018-06-23T00:28:21.544Z,1014.07
2018-06-23T00:29:02.117Z,1014.08
2018-06-23T00:29:42.677Z,1014.02
2018-06-23T00:30:23.237Z,1014.03
2018-06-23T00:31:03.788Z,1014.05
2018-06-23T00:31:44.338Z,1014.04
2018-06-23T00:32:24.882Z,1014.04
2018-06-23T00:33:05.492Z,1014.06
2018-06-23T00:33:46.051Z,1014.05
2018-06-23T00:34:26.599Z,1014.02
2018-06-23T00:35:07.155Z,1014.04
2018-06-23T00:35:47.709Z,1013.95
2018-06-23T00:36:28.272Z,1014.04
2018-06-23T00:37:08.843Z,1013.98
2018-06-23T00:37:49.400Z,1014.01
2018-06-23T00:38:29.979Z,1014.01
2018-06-23T00:39:10.557Z,1013.95
2018-06-23T00:39:51.111Z,1014.03
2018-06-23T00:40:31.668Z,1014.09
2018-06-23T00:41:12.229Z,1014.09
2018-06-23T00:41:52.781Z,1014.03
2018-06-23T00:42:33.342Z,1013.97
2018-06-23T00:43:13.906Z,1014
2018-06-23T00:43:54.468Z,1013.98
2018-06-23T00:44:35.035Z,1013.97
2018-06-23T00:45:15.592Z,1014.1
2018-06-23T00:45:56.157Z,1013.99
2018-06-23T00:46:36.712Z,1013.97
2018-06-23T00:47:17.266Z,1014.01
2018-06-23T00:47:57.851Z,1013.98
2018-06-23T00:48:38.409Z,1013.97
2018-06-23T00:49:18.943Z,1013.98
2018-06-23T00:49:59.512Z,1014.04
2018-06-23T00:50:40.041Z,1014.03
2018-06-23T00:51:20.611Z,1014.01
2018-06-23T00:52:01.159Z,1014
2018-06-23T00:52:41.712Z,1014.01
2018-06-23T00:53:22.261Z,1014.06
2018-06-23T00:54:02.834Z,1014.06
2018-06-23T00:54:43.393Z,1013.97
2018-06-23T00:55:23.958Z,1014.02
2018-06-23T00:56:04.529Z,1014.1
2018-06-23T00:56:45.169Z,1014.12
2018-06-23T00:57:25.737Z,1014.13
2018-06-23T00:58:06.284Z,1014.1
2018-06-23T00:58:46.845Z,1014.08
2018-06-23T00:59:27.408Z,1014.04
2018-06-23T01:00:07.978Z,1014.05
2018-06-23T01:00:48.507Z,1014.08
2018-06-23T01:01:29.080Z,1014.1
2018-06-23T01:02:09.605Z,1014.1
2018-06-23T01:02:50.170Z,1014.11
2018-06-23T01:03:30.719Z,1014.11
2018-06-23T01:04:11.275Z,1014.12
2018-06-23T01:04:51.844Z,1014.03
2018-06-23T01:05:32.439Z,1014.14
2018-06-23T01:06:12.996Z,1014.14
2018-06-23T01:06:53.563Z,1014.1
2018-06-23T01:07:34.128Z,1014.09
2018-06-23T01:08:14.678Z,1014.1
2018-06-23T01:08:55.249Z,1014.08
2018-06-23T01:09:35.803Z,1014.09
2018-06-23T01:10:16.379Z,1014.08
2018-06-23T01:10:56.943Z,1014.1
2018-06-23T01:11:37.501Z,1014.08
2018-06-23T01:12:18.061Z,1014.07
2018-06-23T01:12:58.610Z,1014.01
2018-06-23T01:13:39.213Z,1014.05
2018-06-23T01:14:19.775Z,1014.05
2018-06-23T01:15:00.344Z,1014.01
2018-06-23T01:15:40.915Z,1014.01
2018-06-23T01:16:21.467Z,1013.96
2018-06-23T01:17:02.027Z,1014.01
2018-06-23T01:17:42.575Z,1014.03
2018-06-23T01:18:23.127Z,1014.04
2018-06-23T01:19:03.680Z,1014.06
2018-06-23T01:19:44.244Z,1014.02
2018-06-23T01:20:24.828Z,1013.97
2018-06-23T01:21:05.385Z,1014.02
2018-06-23T01:21:45.954Z,1014.02
2018-06-23T01:22:26.538Z,1014.07
2018-06-23T01:23:07.112Z,1014.04
2018-06-23T01:23:47.624Z,1014.03
2018-06-23T01:24:28.178Z,1014.05
2018-06-23T01:25:08.724Z,1014.06
2018-06-23T01:25:49.279Z,1014
2018-06-23T01:26:29.846Z,1014.03
2018-06-23T01:27:10.404Z,1014.09
2018-06-23T01:27:50.939Z,1014.05
2018-06-23T01:28:31.511Z,1014.06
2018-06-23T01:29:12.077Z,1013.95
2018-06-23T01:29:52.644Z,1013.98
2018-06-23T01:30:33.215Z,1013.98
2018-06-23T01:31:13.775Z,1013.96
2018-06-23T01:31:54.332Z,1014.01
2018-06-23T01:32:34.893Z,1013.96
2018-06-23T01:33:15.530Z,1014
2018-06-23T01:33:56.100Z,1013.94
2018-06-23T01:34:36.698Z,1013.96
2018-06-23T01:35:17.286Z,1014.01
2018-06-23T01:35:57.841Z,1013.94
2018-06-23T01:36:38.396Z,1013.9
2018-06-23T01:37:18.964Z,1013.97
2018-06-23T01:37:59.533Z,1013.99
2018-06-23T01:38:40.112Z,1013.96
2018-06-23T01:39:20.677Z,1013.95
2018-06-23T01:40:01.246Z,1013.92
2018-06-23T01:40:41.809Z,1013.92
2018-06-23T01:41:22.348Z,1013.91
2018-06-23T01:42:02.907Z,1013.97
2018-06-23T01:42:43.447Z,1013.96
2018-06-23T01:43:24.072Z,1013.91
2018-06-23T01:44:04.635Z,1013.88
2018-06-23T01:44:45.248Z,1013.89
2018-06-23T01:45:25.837Z,1013.81
2018-06-23T01:46:06.374Z,1013.88
2018-06-23T01:46:46.929Z,1013.91
2018-06-23T01:47:27.496Z,1013.89
2018-06-23T01:48:08.065Z,1013.9
2018-06-23T01:48:48.620Z,1013.88
2018-06-23T01:49:29.195Z,1013.88
2018-06-23T01:50:09.762Z,1013.91
2018-06-23T01:50:50.334Z,1013.87
2018-06-23T01:51:30.894Z,1013.94
2018-06-23T01:52:11.464Z,1013.86
2018-06-23T01:52:52.033Z,1013.89
2018-06-23T01:53:32.594Z,1013.92
2018-06-23T01:54:13.134Z,1013.86
2018-06-23T01:54:53.686Z,1013.85
2018-06-23T01:55:34.231Z,1013.84
2018-06-23T01:56:14.791Z,1013.85
2018-06-23T01:56:55.358Z,1013.85
2018-06-23T01:57:35.888Z,1013.81
2018-06-23T01:58:16.439Z,1013.82
2018-06-23T01:58:57.025Z,1013.82
2018-06-23T01:59:37.626Z,1013.89
2018-06-23T02:00:18.173Z,1013.8
2018-06-23T02:00:58.733Z,1013.84
2018-06-23T02:01:39.289Z,1013.84
2018-06-23T02:02:19.843Z,1013.78
2018-06-23T02:03:00.396Z,1013.87
2018-06-23T02:03:40.944Z,1013.88
2018-06-23T02:04:21.492Z,1013.82
2018-06-23T02:05:02.041Z,1013.84
2018-06-23T02:05:42.600Z,1013.84
2018-06-23T02:06:23.143Z,1013.85
2018-06-23T02:07:03.697Z,1013.82
2018-06-23T02:07:44.235Z,1013.85
2018-06-23T02:08:24.787Z,1013.89
2018-06-23T02:09:05.339Z,1013.79
2018-06-23T02:09:45.895Z,1013.9
2018-06-23T02:10:26.452Z,1013.85
2018-06-23T02:11:07.011Z,1013.87
2018-06-23T02:11:47.558Z,1013.94
2018-06-23T02:12:28.109Z,1013.97
2018-06-23T02:13:08.677Z,1013.96
2018-06-23T02:13:49.225Z,1013.96
2018-06-23T02:14:29.790Z,1013.98
2018-06-23T02:15:10.340Z,1013.97
2018-06-23T02:15:50.915Z,1014.03
2018-06-23T02:16:31.468Z,1014.02
2018-06-23T02:17:12.018Z,1013.94
2018-06-23T02:17:52.582Z,1013.96
2018-06-23T02:18:33.147Z,1013.99
2018-06-23T02:19:13.693Z,1014.03
2018-06-23T02:19:54.262Z,1013.97
2018-06-23T02:20:34.822Z,1013.98
2018-06-23T02:21:15.383Z,1014.05
2018-06-23T02:21:55.942Z,1014.03
2018-06-23T02:22:36.491Z,1014
2018-06-23T02:23:17.039Z,1014.05
2018-06-23T02:23:57.594Z,1014.02
2018-06-23T02:24:38.146Z,1014.07
2018-06-23T02:25:18.706Z,1014.03
2018-06-23T02:25:59.287Z,1014.06
2018-06-23T02:26:39.853Z,1014.06
2018-06-23T02:27:20.453Z,1014.04
2018-06-23T02:28:01.003Z,1013.98
2018-06-23T02:28:41.555Z,1013.99
2018-06-23T02:29:22.114Z,1014.07
2018-06-23T02:30:02.687Z,1013.98
2018-06-23T02:30:43.249Z,1014
2018-06-23T02:31:23.807Z,1013.97
2018-06-23T02:32:04.391Z,1014.05
2018-06-23T02:32:44.966Z,1013.92
2018-06-23T02:33:25.557Z,1014.02
2018-06-23T02:34:06.101Z,1013.99
2018-06-23T02:34:46.664Z,1013.97
2018-06-23T02:35:27.220Z,1014.04
2018-06-23T02:36:07.773Z,1014
2018-06-23T02:36:48.315Z,1014.07
2018-06-23T02:37:28.881Z,1014.01
2018-06-23T02:38:09.429Z,1014.13
2018-06-23T02:38:50.019Z,1014.07
2018-06-23T02:39:30.579Z,1014.07
2018-06-23T02:40:11.102Z,1014.01
2018-06-23T02:40:51.673Z,1014.02
2018-06-23T02:41:32.221Z,1014.04
2018-06-23T02:42:12.790Z,1014.04
2018-06-23T02:42:53.346Z,1014.03
2018-06-23T02:43:33.896Z,1014.03
2018-06-23T02:44:14.479Z,1014.01
2018-06-23T02:44:55.014Z,1014.07
2018-06-23T02:45:35.579Z,1014.12
2018-06-23T02:46:16.129Z,1013.98
2018-06-23T02:46:56.683Z,1014.01
2018-06-23T02:47:37.230Z,1014.05
2018-06-23T02:48:17.785Z,1014.04
2018-06-23T02:48:58.351Z,1014.05
2018-06-23T02:49:38.913Z,1014.06
2018-06-23T02:50:19.484Z,1014.01
2018-06-23T02:51:00.063Z,1014.05
2018-06-23T02:51:40.621Z,1014.01
2018-06-23T02:52:21.181Z,1013.99
2018-06-23T02:53:01.762Z,1014.04
2018-06-23T02:53:42.320Z,1014
2018-06-23T02:54:22.875Z,1014.05
2018-06-23T02:55:03.425Z,1014.05
2018-06-23T02:55:43.987Z,1014.12
2018-06-23T02:56:24.542Z,1014.07
2018-06-23T02:57:05.130Z,1014.06
2018-06-23T02:57:45.711Z,1014.08
2018-06-23T02:58:26.258Z,1014.02
2018-06-23T02:59:06.817Z,1014.05
2018-06-23T02:59:47.377Z,1014.14
2018-06-23T03:00:27.940Z,1014.09
2018-06-23T03:01:08.500Z,1014.03
2018-06-23T03:01:49.063Z,1014.13
2018-06-23T03:02:29.623Z,1014.07
2018-06-23T03:03:10.179Z,1014.12
2018-06-23T03:03:50.746Z,1014.12
2018-06-23T03:04:31.332Z,1014.16
2018-06-23T03:05:11.886Z,1014.09
2018-06-23T03:05:52.444Z,1014.1
2018-06-23T03:06:33.011Z,1014.15
2018-06-23T03:07:13.569Z,1014.14
2018-06-23T03:07:54.189Z,1014.18
2018-06-23T03:08:34.754Z,1014.17
2018-06-23T03:09:15.316Z,1014.17
2018-06-23T03:09:55.873Z,1014.17
2018-06-23T03:10:36.427Z,1014.14
2018-06-23T03:11:16.977Z,1014.18
2018-06-23T03:11:57.533Z,1014.21
2018-06-23T03:12:38.077Z,1014.19
2018-06-23T03:14:30.638Z,1014.16
2018-06-23T03:15:11.176Z,1014.15
2018-06-23T03:15:51.723Z,1014.14
2018-06-23T03:16:32.272Z,1014.13
2018-06-23T03:17:12.819Z,1014.19
2018-06-23T03:17:53.372Z,1014.16
2018-06-23T03:18:33.924Z,1014.2
2018-06-23T03:19:14.487Z,1014.19
2018-06-23T03:19:55.046Z,1014.17
2018-06-23T03:20:35.597Z,1014.13
2018-06-23T03:21:16.150Z,1014.15
2018-06-23T03:21:56.698Z,1014.22
2018-06-23T03:22:37.247Z,1014.14
2018-06-23T03:23:17.792Z,1014.19
2018-06-23T03:23:58.332Z,1014.16
2018-06-23T03:24:38.910Z,1014.13
2018-06-23T03:25:19.460Z,1014.18
2018-06-23T03:25:59.999Z,1014.12
2018-06-23T03:26:40.569Z,1014.12
2018-06-23T03:27:21.103Z,1014.14
2018-06-23T03:28:01.666Z,1014.15
2018-06-23T03:28:42.250Z,1014.09
2018-06-23T03:29:22.802Z,1014.14
2018-06-23T03:30:03.385Z,1014.18
2018-06-23T03:30:43.950Z,1014.15
2018-06-23T03:31:24.472Z,1014.13
2018-06-23T03:32:05.049Z,1014.1
2018-06-23T03:32:45.589Z,1014.08
2018-06-23T03:33:26.147Z,1014.15
2018-06-23T03:34:06.708Z,1014.1
2018-06-23T03:34:47.250Z,1014.17
2018-06-23T03:35:27.797Z,1014.12
2018-06-23T03:36:08.343Z,1014.15
2018-06-23T03:36:48.904Z,1014.16
2018-06-23T03:37:29.489Z,1014.12
2018-06-23T03:38:10.059Z,1014.14
2018-06-23T03:38:50.672Z,1014.17
2018-06-23T03:39:31.227Z,1014.13
2018-06-23T03:40:11.817Z,1014.12
2018-06-23T03:40:52.391Z,1014.13
2018-06-23T03:41:32.959Z,1014.12
2018-06-23T03:42:13.507Z,1014.13
2018-06-23T03:42:54.092Z,1014.17
2018-06-23T03:43:34.611Z,1014.12
2018-06-23T03:44:15.158Z,1014.15
2018-06-23T03:44:55.728Z,1014.18
2018-06-23T03:45:36.272Z,1014.14
2018-06-23T03:46:16.872Z,1014.16
2018-06-23T03:46:57.444Z,1014.15
2018-06-23T03:47:38.014Z,1014.14
2018-06-23T03:48:18.581Z,1014.26
2018-06-23T03:48:59.108Z,1014.19
2018-06-23T03:49:39.667Z,1014.12
2018-06-23T03:50:20.240Z,1014.1
2018-06-23T03:51:00.765Z,1014.1
2018-06-23T03:51:41.331Z,1014.09
2018-06-23T03:52:21.888Z,1014.1
2018-06-23T03:53:02.418Z,1014.11
2018-06-23T03:53:42.972Z,1014.14
2018-06-23T03:54:23.523Z,1014.13
2018-06-23T03:55:04.085Z,1014.1
2018-06-23T03:55:44.649Z,1014.15
2018-06-23T03:56:25.232Z,1014.12
2018-06-23T03:57:05.792Z,1014.12
2018-06-23T03:57:46.349Z,1014.19
2018-06-23T03:58:26.901Z,1014.18
2018-06-23T03:59:07.465Z,1014.16
2018-06-23T03:59:48.036Z,1014.15
2018-06-23T04:00:28.598Z,1014.21
2018-06-23T04:01:09.178Z,1014.15
2018-06-23T04:01:49.742Z,1014.18
2018-06-23T04:02:30.315Z,1014.2
2018-06-23T04:03:10.894Z,1014.23
2018-06-23T04:03:51.439Z,1014.27
2018-06-23T04:04:31.989Z,1014.21
2018-06-23T04:05:12.596Z,1014.17
2018-06-23T04:05:53.274Z,1014.25
2018-06-23T04:06:33.831Z,1014.14
2018-06-23T04:07:14.407Z,1014.18
2018-06-23T04:07:54.948Z,1014.23
2018-06-23T04:08:35.498Z,1014.19
2018-06-23T04:09:16.055Z,1014.18
2018-06-23T04:09:56.609Z,1014.23
2018-06-23T04:10:37.159Z,1014.23
2018-06-23T04:11:17.714Z,1014.23
2018-06-23T04:11:58.324Z,1014.2
2018-06-23T04:12:38.891Z,1014.22
2018-06-23T04:13:19.447Z,1014.18
2018-06-23T04:14:00.000Z,1014.21
2018-06-23T04:14:40.565Z,1014.22
2018-06-23T04:15:21.103Z,1014.21
2018-06-23T04:16:01.736Z,1014.2
2018-06-23T04:16:42.269Z,1014.15
2018-06-23T04:17:22.767Z,1014.16
2018-06-23T04:18:03.315Z,1014.2
2018-06-23T04:18:43.862Z,1014.17
2018-06-23T04:19:24.409Z,1014.13
2018-06-23T04:20:04.974Z,1014.12
2018-06-23T04:20:45.572Z,1014.15
2018-06-23T04:21:26.125Z,1014.14
2018-06-23T04:22:06.726Z,1014.16
2018-06-23T04:22:47.281Z,1014.14
2018-06-23T04:23:27.818Z,1014.2
2018-06-23T04:24:08.381Z,1014.16
2018-06-23T04:24:48.945Z,1014.15
2018-06-23T04:25:29.477Z,1014.17
2018-06-23T04:26:10.052Z,1014.16
2018-06-23T04:26:50.624Z,1014.16
2018-06-23T04:27:31.180Z,1014.12
2018-06-23T04:28:11.741Z,1014.12
2018-06-23T04:28:52.310Z,1014.14
2018-06-23T04:29:32.862Z,1014.1
2018-06-23T04:30:13.430Z,1014.13
2018-06-23T04:30:53.988Z,1014.11
2018-06-23T04:31:34.517Z,1014.13
2018-06-23T04:32:15.069Z,1014.05
2018-06-23T04:32:55.627Z,1014.1
2018-06-23T04:33:36.185Z,1014.1
2018-06-23T04:34:16.730Z,1014.07
2018-06-23T04:34:57.285Z,1014.06
2018-06-23T04:35:37.842Z,1014.06
2018-06-23T04:36:18.392Z,1014.02
2018-06-23T04:36:58.946Z,1014.01
2018-06-23T04:37:39.513Z,1014.04
2018-06-23T04:38:20.091Z,1014.04
2018-06-23T04:39:00.667Z,1014.12
2018-06-23T04:39:41.245Z,1014.07
2018-06-23T04:40:21.897Z,1014.04
2018-06-23T04:41:02.441Z,1014
2018-06-23T04:41:43.054Z,1013.93
2018-06-23T04:42:23.630Z,1013.96
2018-06-23T04:43:04.239Z,1014.02
2018-06-23T04:43:44.802Z,1014.07
2018-06-23T04:44:25.360Z,1014.03
2018-06-23T04:45:05.922Z,1014.03
2018-06-23T04:45:46.484Z,1014
2018-06-23T04:46:27.040Z,1013.94
2018-06-23T04:47:07.596Z,1014.03
2018-06-23T04:47:48.166Z,1014.02
2018-06-23T04:48:28.702Z,1014.08
2018-06-23T04:49:09.252Z,1014.04
2018-06-23T04:49:49.850Z,1014.02
2018-06-23T04:50:30.383Z,1014.04
2018-06-23T04:51:10.935Z,1013.99
2018-06-23T04:51:51.510Z,1014.01
2018-06-23T04:52:32.089Z,1014.03
2018-06-23T04:53:12.667Z,1013.97
2018-06-23T04:53:53.209Z,1014.03
2018-06-23T04:54:33.765Z,1014.01
2018-06-23T04:55:14.317Z,1013.94
2018-06-23T04:55:54.864Z,1014.01
2018-06-23T04:56:35.426Z,1013.97
2018-06-23T04:57:15.977Z,1013.97
2018-06-23T04:57:56.528Z,1013.92
2018-06-23T04:58:37.069Z,1013.99
2018-06-23T04:59:17.625Z,1013.99
2018-06-23T04:59:58.735Z,1014.03
2018-06-23T05:00:39.329Z,1014
2018-06-23T05:01:19.875Z,1014.03
2018-06-23T05:02:00.419Z,1014.06
2018-06-23T05:02:40.966Z,1014.12
2018-06-23T05:03:21.554Z,1014.12
2018-06-23T05:04:02.097Z,1014.14
2018-06-23T05:04:42.637Z,1014.1
2018-06-23T05:05:23.187Z,1014.06
2018-06-23T05:06:03.874Z,1014.07
2018-06-23T05:06:45.641Z,1014.1
2018-06-23T05:07:25.103Z,1014.08
2018-06-23T05:08:05.677Z,1014.11
2018-06-23T05:08:46.263Z,1014.12
2018-06-23T05:09:26.808Z,1014.13
2018-06-23T05:10:07.362Z,1014.1
2018-06-23T05:10:47.945Z,1014.15
2018-06-23T05:11:28.546Z,1014.1
2018-06-23T05:12:09.180Z,1014.14
2018-06-23T05:12:49.775Z,1014.17
2018-06-23T05:13:30.386Z,1014.14
2018-06-23T05:14:11.053Z,1014.15
2018-06-23T05:14:51.689Z,1014.15
2018-06-23T05:15:32.365Z,1014.17
2018-06-23T05:16:12.960Z,1014.17
2018-06-23T05:16:53.550Z,1014.04
2018-06-23T05:17:34.152Z,1013.94
2018-06-23T05:18:14.721Z,1014.07
2018-06-23T05:18:55.271Z,1014.09
2018-06-23T05:19:35.896Z,1014.1
2018-06-23T05:20:16.476Z,1014.18
2018-06-23T05:20:57.044Z,1014.12
2018-06-23T05:21:37.608Z,1014.12
2018-06-23T05:22:18.148Z,1014.08
2018-06-23T05:22:58.696Z,1014.06
2018-06-23T05:23:39.264Z,1014.08
2018-06-23T05:24:19.882Z,1014
2018-06-23T05:25:00.369Z,1014.03
2018-06-23T05:25:41.094Z,1014.01
2018-06-23T05:26:21.643Z,1014.01
2018-06-23T05:27:02.186Z,1014.01
2018-06-23T05:27:42.799Z,1013.99
2018-06-23T05:28:23.346Z,1013.98
2018-06-23T05:29:03.922Z,1014.04
2018-06-23T05:29:45.317Z,1014.06
2018-06-23T05:30:25.870Z,1014.06
2018-06-23T05:31:06.411Z,1014.03
2018-06-23T05:31:47.060Z,1014.03
2018-06-23T05:32:27.600Z,1014.03
2018-06-23T05:33:08.263Z,1014.05
2018-06-23T05:33:48.878Z,1014.05
2018-06-23T05:34:29.435Z,1014.03
2018-06-23T05:35:10.011Z,1014.08
2018-06-23T05:35:50.636Z,1014.37
2018-06-23T05:36:31.119Z,1014.33
2018-06-23T05:37:11.810Z,1014.41
2018-06-23T05:37:52.394Z,1014.13
2018-06-23T05:38:35.699Z,1014.46
2018-06-23T05:39:17.120Z,1014.18
2018-06-23T05:39:57.882Z,1014.68
2018-06-23T05:40:38.396Z,1014.21
2018-06-23T05:41:19.119Z,1014.26
2018-06-23T05:41:59.955Z,1014.09
2018-06-23T05:42:41.811Z,1014.2
2018-06-23T05:43:23.111Z,1015.06
2018-06-23T05:44:04.364Z,1014.77
2018-06-23T05:44:45.970Z,1014.23
2018-06-23T05:45:27.866Z,1014.77
2018-06-23T05:46:09.399Z,1014.13
2018-06-23T05:46:50.252Z,1014.18
2018-06-23T05:47:31.164Z,1014.1
2018-06-23T05:48:12.581Z,1014.16
2018-06-23T05:48:53.600Z,1014.1
2018-06-23T05:49:34.173Z,1014.19
2018-06-23T05:50:15.019Z,1015.65
2018-06-23T05:50:59.745Z,1014.12
2018-06-23T05:51:38.597Z,1014.24
2018-06-23T05:52:19.315Z,1014.94
2018-06-23T05:53:00.231Z,1014.28
2018-06-23T05:53:41.170Z,1015.44
2018-06-23T05:54:21.998Z,1014.57
2018-06-23T05:55:02.753Z,1014.46
2018-06-23T05:55:43.457Z,1014.5
2018-06-23T05:56:24.307Z,1014.17
2018-06-23T05:57:05.570Z,1014.14
2018-06-23T05:57:46.399Z,1014.13
2018-06-23T05:58:26.919Z,1014.18
2018-06-23T05:59:07.740Z,1014.18
2018-06-23T05:59:48.323Z,1014.16
2018-06-23T06:00:29.117Z,1014.2
2018-06-23T06:01:09.986Z,1014.16
2018-06-23T06:01:50.628Z,1014.11
2018-06-23T06:02:31.352Z,1014.2
2018-06-23T06:03:12.069Z,1014.25
2018-06-23T06:03:52.763Z,1014.19
2018-06-23T06:04:33.717Z,1014.16
2018-06-23T06:05:14.758Z,1014.13
2018-06-23T06:05:55.353Z,1014.11
2018-06-23T06:06:35.927Z,1014.11
2018-06-23T06:07:16.485Z,1014.09
2018-06-23T06:07:57.033Z,1014.11
2018-06-23T06:08:38.192Z,1014.13
2018-06-23T06:09:18.738Z,1014.1
2018-06-23T06:09:59.278Z,1014.12
2018-06-23T06:10:39.843Z,1014.18
2018-06-23T06:11:20.388Z,1014.06
2018-06-23T06:12:00.941Z,1014.11
2018-06-23T06:12:41.538Z,1014.12
2018-06-23T06:13:22.112Z,1014.11
2018-06-23T06:14:02.689Z,1014.04
2018-06-23T06:14:43.250Z,1014.07
2018-06-23T06:15:23.822Z,1014.07
2018-06-23T06:16:04.420Z,1014.09
2018-06-23T06:16:44.958Z,1014.02
2018-06-23T06:17:25.519Z,1014.05
2018-06-23T06:18:06.053Z,1014.08
2018-06-23T06:18:46.596Z,1014.13
2018-06-23T06:19:27.142Z,1014.1
2018-06-23T06:20:07.701Z,1014.08
2018-06-23T06:20:48.272Z,1014.07
2018-06-23T06:21:28.827Z,1014.04
2018-06-23T06:22:09.383Z,1014.08
2018-06-23T06:22:49.941Z,1014.08
2018-06-23T06:23:30.501Z,1014.05
2018-06-23T06:24:11.076Z,1014.05
2018-06-23T06:24:51.959Z,1013.99
2018-06-23T06:25:32.506Z,1014.01
2018-06-23T06:26:13.082Z,1013.98
2018-06-23T06:26:53.637Z,1014.07
2018-06-23T06:27:34.193Z,1014.01
2018-06-23T06:28:14.750Z,1014.04
2018-06-23T06:28:55.317Z,1014.05
2018-06-23T06:29:35.891Z,1014.06
2018-06-23T06:30:16.457Z,1014.09
2018-06-23T06:30:56.999Z,1014.11
2018-06-23T06:31:37.560Z,1014.12
2018-06-23T06:32:18.118Z,1014.06
2018-06-23T06:32:58.665Z,1014.13
2018-06-23T06:33:39.236Z,1014.1
2018-06-23T06:34:19.817Z,1014.13
2018-06-23T06:35:00.375Z,1014.08
2018-06-23T06:35:41.014Z,1014.09
2018-06-23T06:36:21.495Z,1014.14
2018-06-23T06:37:02.051Z,1014.09
2018-06-23T06:37:42.593Z,1014.13
2018-06-23T06:38:23.144Z,1014.06
2018-06-23T06:39:04.004Z,1014.09
2018-06-23T06:39:44.822Z,1014.12
2018-06-23T06:40:25.384Z,1014.07
2018-06-23T06:41:05.950Z,1014.11
2018-06-23T06:41:46.523Z,1014.04
2018-06-23T06:42:27.079Z,1014.05
2018-06-23T06:43:07.668Z,1014.14
2018-06-23T06:43:48.235Z,1014.19
2018-06-23T06:44:28.833Z,1014.09
2018-06-23T06:45:09.351Z,1014.13
2018-06-23T06:45:49.946Z,1014.11
2018-06-23T06:46:30.522Z,1014.15
2018-06-23T06:47:11.095Z,1014.12
2018-06-23T06:47:51.685Z,1014.16
2018-06-23T06:48:32.313Z,1014.14
2018-06-23T06:49:12.883Z,1014.19
2018-06-23T06:49:53.448Z,1014.14
2018-06-23T06:50:33.984Z,1014.18
2018-06-23T06:51:14.537Z,1014.2
2018-06-23T06:51:55.094Z,1014.18
2018-06-23T06:52:35.661Z,1014.24
2018-06-23T06:53:17.413Z,1014.2
2018-06-23T06:53:58.114Z,1014.25
2018-06-23T06:54:38.928Z,1014.26
2018-06-23T06:55:19.676Z,1014.18
2018-06-23T06:56:00.243Z,1014.22
2018-06-23T06:56:41.342Z,1014.29
2018-06-23T06:57:22.169Z,1014.22
2018-06-23T06:58:03.101Z,1014.24
2018-06-23T06:58:43.810Z,1014.27
2018-06-23T06:59:24.381Z,1014.27
2018-06-23T07:00:04.956Z,1014.24
2018-06-23T07:00:45.540Z,1014.29
2018-06-23T07:01:26.112Z,1014.31
2018-06-23T07:02:06.691Z,1014.25
2018-06-23T07:02:47.273Z,1014.29
2018-06-23T07:03:27.989Z,1014.3
2018-06-23T07:04:09.225Z,1014.27
2018-06-23T07:04:49.816Z,1014.27
2018-06-23T07:05:30.373Z,1014.3
2018-06-23T07:06:10.925Z,1014.35
2018-06-23T07:06:51.534Z,1014.32
2018-06-23T07:07:32.090Z,1014.32
2018-06-23T07:08:12.649Z,1014.26
2018-06-23T07:08:53.235Z,1014.32
2018-06-23T07:09:33.761Z,1014.35
2018-06-23T07:10:14.331Z,1014.37
2018-06-23T07:10:54.878Z,1014.38
2018-06-23T07:11:35.434Z,1014.36
2018-06-23T07:12:16.023Z,1014.4
2018-06-23T07:12:56.664Z,1014.38
2018-06-23T07:13:37.357Z,1014.4
2018-06-23T07:14:18.115Z,1014.38
2018-06-23T07:14:59.214Z,1014.41
2018-06-23T07:15:40.187Z,1014.36
2018-06-23T07:16:20.695Z,1014.4
2018-06-23T07:17:01.245Z,1014.37
2018-06-23T07:17:41.835Z,1014.37
2018-06-23T07:18:22.381Z,1014.35
2018-06-23T07:19:02.952Z,1014.39
2018-06-23T07:19:43.674Z,1014.4
2018-06-23T07:20:24.239Z,1014.43
2018-06-23T07:21:04.842Z,1014.35
2018-06-23T07:21:45.365Z,1014.37
2018-06-23T07:22:25.956Z,1014.37
2018-06-23T07:23:06.540Z,1014.38
2018-06-23T07:23:47.200Z,1014.34
2018-06-23T07:24:27.664Z,1014.33
2018-06-23T07:25:08.228Z,1014.29
2018-06-23T07:25:48.797Z,1014.26
2018-06-23T07:26:29.383Z,1014.29
2018-06-23T07:27:09.946Z,1014.28
2018-06-23T07:27:50.502Z,1014.29
2018-06-23T07:28:31.064Z,1014.27
2018-06-23T07:29:11.635Z,1014.27
2018-06-23T07:29:52.205Z,1014.18
2018-06-23T07:30:32.779Z,1014.24
2018-06-23T07:31:13.345Z,1014.21
2018-06-23T07:31:53.903Z,1014.22
2018-06-23T07:32:34.481Z,1014.22
2018-06-23T07:33:15.070Z,1014.23
2018-06-23T07:33:55.635Z,1014.17
2018-06-23T07:34:36.425Z,1014.19
2018-06-23T07:35:16.965Z,1014.2
2018-06-23T07:35:57.334Z,1014.24
2018-06-23T07:36:37.910Z,1014.24
2018-06-23T07:37:18.471Z,1014.15
2018-06-23T07:37:59.038Z,1014.16
2018-06-23T07:38:39.593Z,1014.1
2018-06-23T07:39:20.162Z,1014.13
2018-06-23T07:40:00.728Z,1014.12
2018-06-23T07:40:41.428Z,1014.16
2018-06-23T07:41:21.942Z,1014.14
2018-06-23T07:42:02.599Z,1014.11
2018-06-23T07:42:43.147Z,1014.09
2018-06-23T07:43:23.758Z,1014.09
2018-06-23T07:44:04.311Z,1014.08
2018-06-23T07:44:44.883Z,1014.33
2018-06-23T07:45:25.442Z,1014.25
2018-06-23T07:46:06.002Z,1014.14
2018-06-23T07:46:46.575Z,1014.11
2018-06-23T07:47:27.123Z,1014.12
2018-06-23T07:48:07.742Z,1014.13
2018-06-23T07:48:48.277Z,1014.19
2018-06-23T07:49:28.833Z,1014.18
2018-06-23T07:50:09.432Z,1014.17
2018-06-23T07:50:50.006Z,1014.19
2018-06-23T07:51:30.570Z,1014.18
2018-06-23T07:52:11.132Z,1014.24
2018-06-23T07:52:51.685Z,1014.22
2018-06-23T07:53:32.236Z,1014.24
2018-06-23T07:54:12.786Z,1014.24
2018-06-23T07:54:53.360Z,1014.28
2018-06-23T07:55:33.912Z,1014.18
2018-06-23T07:56:14.516Z,1014.17
2018-06-23T07:56:55.055Z,1014.21
2018-06-23T07:57:35.637Z,1014.13
2018-06-23T07:58:16.189Z,1014.17
2018-06-23T07:58:56.750Z,1014.14
2018-06-23T07:59:37.294Z,1014.1
2018-06-23T08:00:17.864Z,1014.11
2018-06-23T08:00:58.429Z,1014.08
2018-06-23T08:01:39.020Z,1014.15
2018-06-23T08:02:19.549Z,1014.08
2018-06-23T08:03:00.100Z,1014.1
2018-06-23T08:03:40.686Z,1014.09
2018-06-23T08:04:21.246Z,1014.14
2018-06-23T08:05:01.797Z,1014.09
2018-06-23T08:05:42.406Z,1014.08
2018-06-23T08:06:22.978Z,1014.1
2018-06-23T08:07:03.541Z,1014.13
2018-06-23T08:07:44.152Z,1014.17
2018-06-23T08:08:24.712Z,1014.09
2018-06-23T08:09:05.285Z,1014.12
2018-06-23T08:09:45.853Z,1014.19
2018-06-23T08:10:26.409Z,1014.15
2018-06-23T08:11:06.978Z,1014.14
2018-06-23T08:11:47.740Z,1014.16
2018-06-23T08:12:28.247Z,1014.14
2018-06-23T08:13:08.802Z,1014.13
2018-06-23T08:13:49.368Z,1014.07
2018-06-23T08:14:29.923Z,1014.03